createdAt,value
2023-10-20T00:00:42.490Z,12.35
2023-10-20T00:03:09.985Z,12.33
2023-10-20T00:05:37.200Z,12.32
2023-10-20T00:08:04.028Z,12.29
2023-10-20T00:10:38.071Z,12.27
2023-10-20T00:13:05.998Z,12.25
2023-10-20T00:15:34.570Z,12.24
2023-10-20T00:18:02.563Z,12.22
2023-10-20T00:20:29.934Z,12.20
2023-10-20T00:22:56.930Z,12.20
2023-10-20T00:25:23.890Z,12.18
2023-10-20T00:27:50.554Z,12.16
2023-10-20T00:30:17.075Z,12.16
2023-10-20T00:32:44.267Z,12.14
2023-10-20T00:35:14.503Z,12.13
2023-10-20T00:37:42.208Z,12.12
2023-10-20T00:40:12.255Z,12.10
2023-10-20T00:42:39.406Z,12.09
2023-10-20T00:45:08.038Z,12.07
2023-10-20T00:47:37.227Z,12.06
2023-10-20T00:50:05.837Z,12.05
2023-10-20T00:52:37.119Z,12.04
2023-10-20T00:55:04.582Z,12.04
2023-10-20T00:57:31.192Z,12.03
2023-10-20T00:59:57.650Z,12.01
2023-10-20T01:02:25.640Z,12.01
2023-10-20T01:04:52.679Z,11.98
2023-10-20T01:07:19.140Z,11.98
2023-10-20T01:09:46.012Z,11.97
2023-10-20T01:12:12.529Z,11.94
2023-10-20T01:14:39.159Z,11.93
2023-10-20T01:17:05.991Z,11.91
2023-10-20T01:19:33.428Z,11.90
2023-10-20T01:22:00.990Z,11.88
2023-10-20T01:24:27.914Z,11.88
2023-10-20T01:26:54.419Z,11.88
2023-10-20T01:29:21.208Z,11.86
2023-10-20T01:31:47.828Z,11.85
2023-10-20T01:34:14.572Z,11.85
2023-10-20T01:36:41.321Z,11.85
2023-10-20T01:39:09.226Z,11.84
2023-10-20T01:41:35.807Z,11.85
2023-10-20T01:44:02.294Z,11.84
2023-10-20T01:46:29.774Z,11.83
2023-10-20T01:48:56.418Z,11.83
2023-10-20T01:51:22.870Z,11.83
2023-10-20T01:53:49.356Z,11.83
2023-10-20T01:56:15.872Z,11.83
2023-10-20T01:58:42.392Z,11.83
2023-10-20T02:01:09.690Z,11.82
2023-10-20T02:03:36.330Z,11.81
2023-10-20T02:06:03.191Z,11.83
2023-10-20T02:08:29.680Z,11.82
2023-10-20T02:10:56.143Z,11.81
2023-10-20T02:13:22.603Z,11.82
2023-10-20T02:15:51.364Z,11.81
2023-10-20T02:18:18.634Z,11.80
2023-10-20T02:20:45.350Z,11.79
2023-10-20T02:23:12.585Z,11.79
2023-10-20T02:25:39.220Z,11.79
2023-10-20T02:28:06.085Z,11.79
2023-10-20T02:30:33.725Z,11.78
2023-10-20T02:33:01.639Z,11.78
2023-10-20T02:35:28.181Z,11.76
2023-10-20T02:37:54.637Z,11.75
2023-10-20T02:40:21.251Z,11.73
2023-10-20T02:42:47.896Z,11.72
2023-10-20T02:45:14.642Z,11.71
2023-10-20T02:47:41.406Z,11.71
2023-10-20T02:50:08.639Z,11.70
2023-10-20T02:52:35.156Z,11.69
2023-10-20T02:55:01.872Z,11.68
2023-10-20T02:57:28.473Z,11.67
2023-10-20T02:59:54.972Z,11.65
2023-10-20T03:02:21.839Z,11.65
2023-10-20T03:04:48.483Z,11.63
2023-10-20T03:07:15.057Z,11.63
2023-10-20T03:09:41.510Z,11.60
2023-10-20T03:12:07.993Z,11.60
2023-10-20T03:14:35.988Z,11.58
2023-10-20T03:17:02.980Z,11.57
2023-10-20T03:19:29.769Z,11.55
2023-10-20T03:21:56.388Z,11.55
2023-10-20T03:24:22.980Z,11.52
2023-10-20T03:26:49.687Z,11.51
2023-10-20T03:29:16.344Z,11.49
2023-10-20T03:31:43.320Z,11.48
2023-10-20T03:34:09.838Z,11.46
2023-10-20T03:36:36.301Z,11.46
2023-10-20T03:39:02.830Z,11.46
2023-10-20T03:41:30.460Z,11.43
2023-10-20T03:43:57.066Z,11.43
2023-10-20T03:46:24.648Z,11.41
2023-10-20T03:48:51.158Z,11.41
2023-10-20T03:51:18.296Z,11.39
2023-10-20T03:53:48.812Z,11.38
2023-10-20T03:56:16.106Z,11.34
2023-10-20T03:58:43.745Z,11.34
2023-10-20T04:01:10.445Z,11.33
2023-10-20T04:03:37.009Z,11.33
2023-10-20T04:06:07.461Z,11.31
2023-10-20T04:08:35.224Z,11.31
2023-10-20T04:11:02.039Z,11.30
2023-10-20T04:13:33.277Z,11.28
2023-10-20T04:16:13.495Z,11.24
2023-10-20T04:18:44.379Z,11.26
2023-10-20T04:21:14.939Z,11.26
2023-10-20T04:23:42.170Z,11.25
2023-10-20T04:26:34.835Z,11.22
2023-10-20T04:29:14.622Z,11.23
2023-10-20T04:32:00.383Z,11.22
2023-10-20T04:34:46.088Z,11.21
2023-10-20T04:37:31.352Z,11.21
2023-10-20T04:40:16.436Z,11.20
2023-10-20T04:42:42.940Z,11.19
2023-10-20T04:45:22.951Z,11.18
2023-10-20T04:48:01.414Z,11.18
2023-10-20T04:50:33.931Z,11.17
2023-10-20T04:53:06.781Z,11.16
2023-10-20T04:55:54.216Z,11.15
2023-10-20T04:58:39.055Z,11.14
2023-10-20T05:01:08.765Z,11.13
2023-10-20T05:03:47.709Z,11.12
2023-10-20T05:06:23.718Z,11.10
2023-10-20T05:08:50.907Z,11.08
2023-10-20T05:11:17.920Z,11.08
2023-10-20T05:17:26.523Z,11.03
2023-10-20T05:19:54.900Z,11.06
2023-10-20T05:22:21.507Z,11.10
2023-10-20T05:24:48.082Z,11.08
2023-10-20T05:27:14.590Z,11.04
2023-10-20T05:29:41.190Z,11.02
2023-10-20T05:32:07.947Z,11.01
2023-10-20T05:34:35.691Z,11.02
2023-10-20T05:37:02.676Z,11.01
2023-10-20T05:39:29.251Z,11.01
2023-10-20T05:41:55.804Z,10.99
2023-10-20T05:44:24.258Z,10.99
2023-10-20T05:46:51.793Z,10.98
2023-10-20T05:49:18.371Z,10.97
2023-10-20T05:51:46.314Z,10.95
2023-10-20T05:54:12.788Z,10.94
2023-10-20T05:56:39.322Z,10.91
2023-10-20T05:59:05.855Z,10.91
2023-10-20T06:01:32.494Z,10.90
2023-10-20T06:03:59.432Z,10.86
2023-10-20T06:06:25.973Z,10.85
2023-10-20T06:08:52.478Z,10.84
2023-10-20T06:11:19.083Z,10.82
2023-10-20T06:13:45.506Z,10.81
2023-10-20T06:16:12.688Z,10.79
2023-10-20T06:18:42.085Z,10.78
2023-10-20T06:21:18.092Z,10.75
2023-10-20T06:23:45.248Z,10.77
2023-10-20T06:26:12.034Z,10.76
2023-10-20T06:28:38.628Z,10.73
2023-10-20T06:31:28.559Z,10.73
2023-10-20T06:34:10.644Z,10.73
2023-10-20T06:36:41.332Z,10.72
2023-10-20T06:39:13.971Z,10.68
2023-10-20T06:41:41.201Z,10.68
2023-10-20T06:44:08.035Z,10.66
2023-10-20T06:46:34.547Z,10.65
2023-10-20T06:49:01.027Z,10.66
2023-10-20T06:51:27.536Z,10.64
2023-10-20T06:53:54.854Z,10.63
2023-10-20T06:56:25.894Z,10.62
2023-10-20T06:58:54.587Z,10.61
2023-10-20T07:01:21.076Z,10.64
2023-10-20T07:03:47.813Z,10.62
2023-10-20T07:06:14.530Z,10.58
2023-10-20T07:08:41.258Z,10.58
2023-10-20T07:11:08.165Z,10.55
2023-10-20T07:13:35.118Z,10.55
2023-10-20T07:16:01.941Z,10.54
2023-10-20T07:18:28.707Z,10.55
2023-10-20T07:20:58.687Z,10.54
2023-10-20T07:23:25.976Z,10.55
2023-10-20T07:25:53.887Z,10.55
2023-10-20T07:28:20.401Z,10.55
2023-10-20T07:30:46.848Z,10.54
2023-10-20T07:33:13.545Z,10.54
2023-10-20T07:35:40.449Z,10.54
2023-10-20T07:38:09.202Z,10.53
2023-10-20T07:40:38.950Z,10.54
2023-10-20T07:43:07.478Z,10.54
2023-10-20T07:45:44.281Z,10.50
2023-10-20T07:48:11.964Z,10.53
2023-10-20T07:50:39.026Z,10.53
2023-10-20T07:53:06.355Z,10.51
2023-10-20T07:55:32.909Z,10.51
2023-10-20T07:58:02.299Z,10.51
2023-10-20T08:00:30.677Z,10.50
2023-10-20T08:02:57.457Z,10.50
2023-10-20T08:05:27.054Z,10.49
2023-10-20T08:07:54.389Z,10.49
2023-10-20T08:10:22.924Z,10.47
2023-10-20T08:12:50.337Z,10.47
2023-10-20T08:15:17.588Z,10.47
2023-10-20T08:17:46.264Z,10.47
2023-10-20T08:20:13.848Z,10.47
2023-10-20T08:22:40.637Z,10.48
2023-10-20T08:25:08.550Z,10.46
2023-10-20T08:27:35.300Z,10.47
2023-10-20T08:30:01.952Z,10.47
2023-10-20T08:32:28.539Z,10.46
2023-10-20T08:34:55.059Z,10.45
2023-10-20T08:37:21.565Z,10.45
2023-10-20T08:39:48.209Z,10.43
2023-10-20T08:42:19.039Z,10.41
2023-10-20T08:44:46.338Z,10.42
2023-10-20T08:47:18.589Z,10.39
2023-10-20T08:49:47.224Z,10.41
2023-10-20T08:52:14.597Z,10.42
2023-10-20T08:54:42.267Z,10.41
2023-10-20T08:57:09.477Z,10.42
2023-10-20T08:59:39.048Z,10.41
2023-10-20T09:02:06.415Z,10.41
2023-10-20T09:04:35.484Z,10.40
2023-10-20T09:07:13.000Z,10.37
2023-10-20T09:09:41.905Z,10.40
2023-10-20T09:12:09.876Z,10.40
2023-10-20T09:14:42.693Z,10.39
2023-10-20T09:17:13.134Z,10.41
2023-10-20T09:19:39.644Z,10.41
2023-10-20T09:22:06.782Z,10.40
2023-10-20T09:24:33.471Z,10.40
2023-10-20T09:27:01.068Z,10.41
2023-10-20T09:29:31.107Z,10.40
2023-10-20T09:32:00.773Z,10.40
2023-10-20T09:34:28.703Z,10.39
2023-10-20T09:36:57.762Z,10.40
2023-10-20T09:39:38.457Z,10.37
2023-10-20T09:42:07.135Z,10.40
2023-10-20T09:44:47.640Z,10.39
2023-10-20T09:47:23.152Z,10.40
2023-10-20T09:49:52.320Z,10.42
2023-10-20T09:52:20.314Z,10.44
2023-10-20T09:54:51.384Z,10.45
2023-10-20T09:57:20.795Z,10.46
2023-10-20T09:59:54.780Z,10.46
2023-10-20T10:02:29.127Z,10.45
2023-10-20T10:04:58.060Z,10.49
2023-10-20T10:07:37.234Z,10.46
2023-10-20T10:10:06.171Z,10.50
2023-10-20T10:12:34.798Z,10.50
2023-10-20T10:15:13.701Z,10.50
2023-10-20T10:17:47.990Z,10.50
2023-10-20T10:20:28.601Z,10.48
2023-10-20T10:23:02.644Z,10.50
2023-10-20T10:25:42.679Z,10.49
2023-10-20T10:28:19.511Z,10.50
2023-10-20T10:30:49.897Z,10.53
2023-10-20T10:33:22.337Z,10.52
2023-10-20T10:35:49.315Z,10.56
2023-10-20T10:38:23.386Z,10.53
2023-10-20T10:40:52.384Z,10.55
2023-10-20T10:43:20.706Z,10.55
2023-10-20T10:45:54.489Z,10.52
2023-10-20T10:48:25.617Z,10.53
2023-10-20T10:50:52.403Z,10.52
2023-10-20T10:53:19.059Z,10.51
2023-10-20T10:55:46.469Z,10.48
2023-10-20T10:58:14.234Z,10.45
2023-10-20T11:00:45.089Z,10.45
2023-10-20T11:03:12.741Z,10.44
2023-10-20T11:05:40.252Z,10.45
2023-10-20T11:08:08.754Z,10.45
2023-10-20T11:10:38.838Z,10.43
2023-10-20T11:13:07.714Z,10.43
2023-10-20T11:15:34.594Z,10.43
2023-10-20T11:18:02.764Z,10.42
2023-10-20T11:20:33.904Z,10.42
2023-10-20T11:23:05.276Z,10.42
2023-10-20T11:25:31.764Z,10.41
2023-10-20T11:27:58.773Z,10.41
2023-10-20T11:30:25.453Z,10.42
2023-10-20T11:32:56.260Z,10.40
2023-10-20T11:35:25.782Z,10.41
2023-10-20T11:37:53.547Z,10.41
2023-10-20T11:40:21.121Z,10.40
2023-10-20T11:42:50.850Z,10.42
2023-10-20T11:45:18.004Z,10.41
2023-10-20T11:47:44.852Z,10.41
2023-10-20T11:50:12.037Z,10.42
2023-10-20T11:52:42.540Z,10.41
2023-10-20T11:55:10.286Z,10.45
2023-10-20T11:57:37.711Z,10.45
2023-10-20T12:00:11.447Z,10.46
2023-10-20T12:02:42.004Z,10.45
2023-10-20T12:05:09.820Z,10.46
2023-10-20T12:07:37.387Z,10.47
2023-10-20T12:10:06.508Z,10.46
2023-10-20T12:12:33.460Z,10.45
2023-10-20T12:15:01.430Z,10.45
2023-10-20T12:17:28.454Z,10.46
2023-10-20T12:19:55.395Z,10.46
2023-10-20T12:22:21.893Z,10.47
2023-10-20T12:24:48.423Z,10.48
2023-10-20T12:27:15.097Z,10.47
2023-10-20T12:29:41.915Z,10.48
2023-10-20T12:32:13.638Z,10.49
2023-10-20T12:34:40.945Z,10.49
2023-10-20T12:37:07.496Z,10.51
2023-10-20T12:39:34.590Z,10.51
2023-10-20T12:42:04.323Z,10.50
2023-10-20T12:44:31.054Z,10.50
2023-10-20T12:46:57.692Z,10.49
2023-10-20T12:49:24.227Z,10.49
2023-10-20T12:51:50.683Z,10.47
2023-10-20T12:54:17.423Z,10.47
2023-10-20T12:56:44.028Z,10.46
2023-10-20T12:59:10.522Z,10.45
2023-10-20T13:01:37.048Z,10.43
2023-10-20T13:04:03.888Z,10.40
2023-10-20T13:06:31.853Z,10.40
2023-10-20T13:09:00.558Z,10.37
2023-10-20T13:11:27.173Z,10.37
2023-10-20T13:13:53.906Z,10.34
2023-10-20T13:16:20.379Z,10.34
2023-10-20T13:18:46.863Z,10.32
2023-10-20T13:21:13.308Z,10.32
2023-10-20T13:23:39.813Z,10.30
2023-10-20T13:26:06.291Z,10.29
2023-10-20T13:28:33.728Z,10.30
2023-10-20T13:31:12.373Z,10.26
2023-10-20T13:33:40.915Z,10.28
2023-10-20T13:36:09.159Z,10.27
2023-10-20T13:38:39.046Z,10.26
2023-10-20T13:41:06.561Z,10.24
2023-10-20T13:43:33.519Z,10.22
2023-10-20T13:46:00.533Z,10.21
2023-10-20T13:48:27.453Z,10.19
2023-10-20T13:50:54.405Z,10.19
2023-10-20T13:53:21.154Z,10.16
2023-10-20T13:55:47.836Z,10.15
2023-10-20T13:58:16.369Z,10.13
2023-10-20T14:00:42.981Z,10.12
2023-10-20T14:03:09.730Z,10.10
2023-10-20T14:05:36.688Z,10.09
2023-10-20T14:08:03.520Z,10.08
2023-10-20T14:10:30.322Z,10.08
2023-10-20T14:12:57.212Z,10.07
2023-10-20T14:15:24.490Z,10.07
2023-10-20T14:17:51.555Z,10.06
2023-10-20T14:20:18.998Z,10.06
2023-10-20T14:22:45.668Z,10.04
2023-10-20T14:25:12.508Z,10.04
2023-10-20T14:27:40.330Z,10.03
2023-10-20T14:30:08.119Z,10.03
2023-10-20T14:32:35.415Z,10.04
2023-10-20T14:35:02.260Z,10.06
2023-10-20T14:37:28.849Z,10.04
2023-10-20T14:39:57.395Z,10.06
2023-10-20T14:42:24.266Z,10.07
2023-10-20T14:44:51.534Z,10.08
2023-10-20T14:47:18.517Z,10.08
2023-10-20T14:49:45.059Z,10.09
2023-10-20T14:52:13.409Z,10.10
2023-10-20T14:54:40.572Z,10.11
2023-10-20T14:57:07.491Z,10.11
2023-10-20T14:59:34.238Z,10.13
2023-10-20T15:02:00.938Z,10.15
2023-10-20T15:04:30.795Z,10.15
2023-10-20T15:06:58.189Z,10.17
2023-10-20T15:09:24.905Z,10.19
2023-10-20T15:11:52.481Z,10.21
2023-10-20T15:14:19.238Z,10.21
2023-10-20T15:16:45.864Z,10.21
2023-10-20T15:19:12.538Z,10.22
2023-10-20T15:21:39.005Z,10.24
2023-10-20T15:24:07.365Z,10.25
2023-10-20T15:26:33.899Z,10.25
2023-10-20T15:29:00.458Z,10.27
2023-10-20T15:31:27.001Z,10.28
2023-10-20T15:33:53.756Z,10.29
2023-10-20T15:36:22.305Z,10.31
2023-10-20T15:38:50.445Z,10.32
2023-10-20T15:41:19.161Z,10.32
2023-10-20T15:43:46.190Z,10.32
2023-10-20T15:46:13.841Z,10.33
2023-10-20T15:48:40.749Z,10.34
2023-10-20T15:51:09.092Z,10.34
2023-10-20T15:53:36.032Z,10.35
2023-10-20T15:56:02.616Z,10.36
2023-10-20T15:58:29.215Z,10.36
2023-10-20T16:01:00.751Z,10.35
2023-10-20T16:03:57.342Z,10.34
2023-10-20T16:06:23.982Z,10.41
2023-10-20T16:08:54.146Z,10.41
2023-10-20T16:11:20.676Z,10.43
2023-10-20T16:13:47.112Z,10.46
2023-10-20T16:19:07.586Z,10.49
2023-10-20T16:21:34.196Z,10.49
2023-10-20T16:24:00.833Z,10.51
2023-10-20T16:26:27.522Z,10.51
2023-10-20T16:28:54.132Z,10.53
2023-10-20T16:31:20.695Z,10.57
2023-10-20T16:33:47.325Z,10.59
2023-10-20T16:36:13.853Z,10.60
2023-10-20T16:38:40.627Z,10.62
2023-10-20T16:41:07.200Z,10.64
2023-10-20T16:43:33.766Z,10.66
2023-10-20T16:46:05.249Z,10.67
2023-10-20T16:48:32.733Z,10.71
2023-10-20T16:50:59.605Z,10.73
2023-10-20T16:53:26.270Z,10.75
2023-10-20T16:55:53.171Z,10.77
2023-10-20T16:58:20.030Z,10.80
2023-10-20T17:00:46.587Z,10.84
2023-10-20T17:03:13.155Z,10.84
2023-10-20T17:05:39.832Z,10.85
2023-10-20T17:08:06.841Z,10.88
2023-10-20T17:10:38.362Z,10.87
2023-10-20T17:13:04.828Z,10.89
2023-10-20T17:15:32.261Z,10.92
2023-10-20T17:17:59.616Z,10.93
2023-10-20T17:20:26.290Z,10.97
2023-10-20T17:22:52.882Z,11.00
2023-10-20T17:25:19.519Z,11.03
2023-10-20T17:27:46.781Z,11.08
2023-10-20T17:30:13.667Z,11.13
2023-10-20T17:32:40.368Z,11.15
2023-10-20T17:35:07.336Z,11.19
2023-10-20T17:37:33.898Z,11.24
2023-10-20T17:40:01.771Z,11.26
2023-10-20T17:42:28.225Z,11.28
2023-10-20T17:44:54.797Z,11.32
2023-10-20T17:47:21.328Z,11.36
2023-10-20T17:49:47.829Z,11.39
2023-10-20T17:52:14.373Z,11.42
2023-10-20T17:54:41.049Z,11.45
2023-10-20T17:57:08.051Z,11.49
2023-10-20T17:59:34.848Z,11.53
2023-10-20T18:02:01.857Z,11.55
2023-10-20T18:04:28.529Z,11.61
2023-10-20T18:06:55.086Z,11.65
2023-10-20T18:10:00.665Z,11.67
2023-10-20T18:12:27.246Z,11.77
2023-10-20T18:14:53.729Z,11.83
2023-10-20T18:17:20.259Z,11.90
2023-10-20T18:19:46.770Z,11.95
2023-10-20T18:22:13.630Z,12.03
2023-10-20T18:24:40.087Z,12.09
2023-10-20T18:27:06.649Z,12.15
2023-10-20T18:29:35.893Z,12.22
2023-10-20T18:32:03.857Z,12.29
2023-10-20T18:34:30.395Z,12.35
2023-10-20T18:36:58.122Z,12.41
2023-10-20T18:39:25.241Z,12.47
2023-10-20T18:41:53.697Z,12.53
2023-10-20T18:44:20.310Z,12.59
2023-10-20T18:46:46.874Z,12.63
2023-10-20T18:49:13.490Z,12.67
2023-10-20T18:51:42.078Z,12.71
2023-10-20T18:54:10.981Z,12.75
2023-10-20T18:56:38.258Z,12.81
2023-10-20T18:59:06.198Z,12.85
2023-10-20T19:01:32.840Z,12.89
2023-10-20T19:03:59.469Z,12.93
2023-10-20T19:06:26.154Z,12.98
2023-10-20T19:08:52.804Z,13.02
2023-10-20T19:11:21.950Z,13.04
2023-10-20T19:13:48.511Z,13.08
2023-10-20T19:16:15.104Z,13.12
2023-10-20T19:18:41.769Z,13.15
2023-10-20T19:21:11.896Z,13.18
2023-10-20T19:23:39.201Z,13.21
2023-10-20T19:26:15.288Z,13.25
2023-10-20T19:28:42.349Z,13.28
2023-10-20T19:31:09.233Z,13.32
2023-10-20T19:33:37.443Z,13.35
2023-10-20T19:36:07.413Z,13.37
2023-10-20T19:38:34.288Z,13.41
2023-10-20T19:41:00.976Z,13.46
2023-10-20T19:43:27.864Z,13.50
2023-10-20T19:45:54.546Z,13.54
2023-10-20T19:48:21.126Z,13.57
2023-10-20T19:50:47.833Z,13.60
2023-10-20T19:53:14.588Z,13.65
2023-10-20T19:55:42.343Z,13.69
2023-10-20T19:58:08.836Z,13.73
2023-10-20T20:00:35.511Z,13.78
2023-10-20T20:03:02.323Z,13.83
2023-10-20T20:05:29.025Z,13.87
2023-10-20T20:07:56.810Z,13.92
2023-10-20T20:10:23.859Z,13.98
2023-10-20T20:12:50.702Z,14.01
2023-10-20T20:15:17.253Z,14.05
2023-10-20T20:17:44.080Z,14.11
2023-10-20T20:20:10.904Z,14.14
2023-10-20T20:22:37.738Z,14.18
2023-10-20T20:25:04.608Z,14.22
2023-10-20T20:27:32.480Z,14.25
2023-10-20T20:29:59.193Z,14.27
2023-10-20T20:32:25.841Z,14.27
2023-10-20T20:34:52.385Z,14.27
2023-10-20T20:37:20.280Z,14.26
2023-10-20T20:39:47.012Z,14.24
2023-10-20T20:42:13.612Z,14.22
2023-10-20T20:44:40.228Z,14.20
2023-10-20T20:47:06.986Z,14.17
2023-10-20T20:49:35.170Z,14.15
2023-10-20T20:52:02.048Z,14.13
2023-10-20T20:54:28.651Z,14.13
2023-10-20T20:56:55.225Z,14.12
2023-10-20T20:59:21.899Z,14.12
2023-10-20T21:01:48.466Z,14.13
2023-10-20T21:04:15.143Z,14.13
2023-10-20T21:06:41.802Z,14.14
2023-10-20T21:09:10.265Z,14.17
2023-10-20T21:11:37.564Z,14.22
2023-10-20T21:14:04.280Z,14.24
2023-10-20T21:16:32.095Z,14.28
2023-10-20T21:19:01.516Z,14.29
2023-10-20T21:21:28.209Z,14.33
2023-10-20T21:23:54.850Z,14.36
2023-10-20T21:26:22.732Z,14.37
2023-10-20T21:28:49.488Z,14.38
2023-10-20T21:31:16.098Z,14.37
2023-10-20T21:33:43.004Z,14.37
2023-10-20T21:36:14.747Z,14.33
2023-10-20T21:38:41.385Z,14.35
2023-10-20T21:41:08.051Z,14.32
2023-10-20T21:43:34.544Z,14.30
2023-10-20T21:46:01.234Z,14.29
2023-10-20T21:48:27.898Z,14.27
2023-10-20T21:50:58.719Z,14.23
2023-10-20T21:53:26.184Z,14.22
2023-10-20T21:56:02.067Z,14.17
2023-10-20T21:58:29.411Z,14.17
2023-10-20T22:00:56.517Z,14.14
2023-10-20T22:03:23.738Z,14.11
2023-10-20T22:05:54.175Z,14.06
2023-10-20T22:08:21.568Z,14.05
2023-10-20T22:10:48.503Z,14.03
2023-10-20T22:13:15.164Z,14.02
2023-10-20T22:15:41.891Z,13.99
2023-10-20T22:18:09.228Z,13.97
2023-10-20T22:20:35.952Z,13.95
2023-10-20T22:23:02.580Z,13.94
2023-10-20T22:25:29.343Z,13.93
2023-10-20T22:27:56.710Z,13.93
2023-10-20T22:30:24.025Z,13.92
2023-10-20T22:32:50.635Z,13.92
2023-10-20T22:35:17.213Z,13.91
2023-10-20T22:37:43.664Z,13.89
2023-10-20T22:40:10.807Z,13.88
2023-10-20T22:42:37.498Z,13.87
2023-10-20T22:45:05.469Z,13.86
2023-10-20T22:47:33.351Z,13.85
2023-10-20T22:50:00.204Z,13.83
2023-10-20T22:52:26.900Z,13.81
2023-10-20T22:54:53.466Z,13.80
2023-10-20T22:57:20.205Z,13.79
2023-10-20T22:59:46.702Z,13.78
2023-10-20T23:02:13.205Z,13.77
2023-10-20T23:04:39.736Z,13.77
2023-10-20T23:07:06.369Z,13.75
2023-10-20T23:09:33.163Z,13.74
2023-10-20T23:11:59.897Z,13.73
2023-10-20T23:14:26.623Z,13.72
2023-10-20T23:16:53.943Z,13.71
2023-10-20T23:19:20.449Z,13.70
2023-10-20T23:21:46.861Z,13.68
2023-10-20T23:24:13.384Z,13.67
2023-10-20T23:26:39.993Z,13.66
2023-10-20T23:29:06.486Z,13.64
2023-10-20T23:31:33.905Z,13.62
2023-10-20T23:34:00.341Z,13.59
2023-10-20T23:36:26.749Z,13.58
2023-10-20T23:38:53.208Z,13.56
2023-10-20T23:41:19.598Z,13.55
2023-10-20T23:43:46.072Z,13.54
2023-10-20T23:46:12.562Z,13.52
2023-10-20T23:48:39.070Z,13.50
2023-10-20T23:51:05.712Z,13.49
2023-10-20T23:53:32.181Z,13.47
2023-10-20T23:55:58.579Z,13.46
2023-10-20T23:58:25.055Z,13.45
